Latest METARs, TAFs and NOTAMs for VTSP


---------------------------------------------------------------------------
	(OBSERVATIONS)
VTSP 240230Z VRB02KT 8000 SCT016 BKN100 28/25 Q1011 NOSIG=
VTSP 240200Z 22005KT 140V260 6000 -RA SCT016 BKN100 27/23 Q1011
    RERA TEMPO TL0210 SHRA=
VTSP 240130Z 29005KT 270V330 7000 -RA SCT016 BKN100 28/24 Q1011
    NOSIG=
VTSP 240100Z VRB02KT 8000 VCSH SCT016 BKN100 29/25 Q1010 VCSH
    W NOSIG=
VTSP 240030Z VRB02KT 9000 FEW015TCU SCT018 27/24 Q1010 NOSIG=
VTSP 240000Z 00000KT 9000 SCT016 SCT100 27/24 Q1009 NOSIG=
---------------------------------------------------------------------------
	(TERMINAL AREA FORECAST)
VTSP 232300Z 2400/2506 28010KT 9000 SCT020 BKN100
    PROB 30
    TEMPO 2406/2410 26010G30KT 3000 TSRA FEW015CB SCT020 BKN100
    BECMG 2418/2420 00000KT
    BECMG 2504/2506 27012KT=
---------------------------------------------------------------------------
	(NOTAMS)


VTSP A0605/17 REVISION OF AERODROME CHART AIRCRAFT PARKING/DOCKING
    CHART AND AERODROME GROUND MOVEMENT CHART OF PHUKET INTERNATIONAL
    AIRPORT AIRCRAFT STAND COORDINATES (WGS84) AMEND AS FLW:
    NR 11 080635.59N 981810.53E TO READ 080623.41N 981818.30E
    NR 12L 080612.70N 981816.58E TO READ 080621.70N 981816.57E
    REF AIRAC AIP SUP A6/17. 27 APR 00:01 2017 UNTIL PERM. CREATED:
    27 MAR 08:29 2017

VTSP A1127/17 DUE TO AIR TRAFFIC CONTROL TOWER RENOVATION AND
    AERODROME CONTROL SERVICE MOVE TO OPERATE IN TEMPORARY CONTROL
    ROOM WITH LIMITED VISION BETWEEN RADIAL R110-R250 PUT DVOR,
    ALL AIRCRAFT MAY EXPERIENCE SOME INCONVENIENCES, ESPECIALLY
    AS USING AERODROME TRAFFIC CIRCUIT NORTH ONLY FOR LANDING,
    OVERFLYING AND TRAINING PURPOSE, RWY 09 BY ENTERING LEFT
    TRAFFIC CIRCUIT AND RWY 27 BY ENTERING RIGHT TRAFFIC CIRCUIT.
    30 MAY 03:49 2017 UNTIL 30 AUG 11:30 2017. CREATED: 30 MAY
    03:52 2017

VTSP A1128/17 FOR GROUND MANAGEMENT PROCEDURE IN ORDER TO FACILITATE
    THE FLOW OF DEPARTING AIRCRAFT AT PHUKET INTERNATIONAL AIRPORT.
    THE CLEARANCE DELIVERY CONTROL IS ESTABLISHED FOR TRIAL OPERATION
    TO ISSUE ATC CLEARANCE FOR ALL AIRCRAFT, OTHER THAN VFR DOMESTIC
    FLIGHT. THE DETAILS ARE AS FOLLOW: 1. UNIT PROVIDING SERVICE
    : PHUKET DELIVERY CONTROL 2. SERVICE DESIGNATOR : CDC 3.
    CALL SIGN : PHUKET DELIVERY 4. FREQUENCY : 118.55 MHZ 5.
    OPERATION HOURS : H24 6. ATC CLEARANCE PROCEDURES : 6.1 PILOTS
    OF ALL AIRCRAFT, OTHER THAN VFR DOMESTIC FLIGHT, SHALL CONTACT
    PHUKET DELIVERY CONTROL 5 MINUTES PRIOR TO START-UP TO REQUEST
    ATC CLEARANCE, AS APPROPRIATE INFORMATION, OF THE FOLLOWING
    : A. AIRCRAFT CALL SIGN B. TYPE OF AIRCRAFT AND CATEGORY,
    IF HEAVY C. PARKING STAND NUMBER/LOCATION D. IDENTIFIED OF
    THE LATEST ATIS RECEIVED E. DESTINATION F. PROPOSED FLIGHT
    LEVEL, IF IT IS DIFFERENT FROM THE FILED FLIGHT PLAN END
    PART 1 OF 2. 30 MAY 04:00 2017 UNTIL 30 AUG 11:30 2017. CREATED:
    30 MAY 04:16 2017

VTSP A1128/17 6.2 UPON RECEIPT OF THE ATC CLEARANCE THE PILOT
    SHALL READ BACK THE FOLLOWING INFORMATION : A. AIRCRAFT CALL
    SIGN B. DESTINATION C. SID AND ROUTE D. LEVEL E. TRANSPONDER
    CODE, AND F. ANY RESTRICTION 6.3 PILOTS SHALL CONTACT PHUKET
    GROUND CONTROL ON FREQUENCY 121.9 MHZ FOR START-UP AND PUSHBACK
    AFTER ATC CLEARANCE HAS BEEN RECEIVED 7. WHEN WEATHER CONDITION
    BELOW VMC, ALL OF VFR OPERATIONS ON AND IN THE VICINITY OF
    PHUKET AERODROME MAY BE SUSPENDED BY PHUKET TOWER OR PHUKET
    APPROACH, IF THE PILOT REQUEST SVFR, SHALL CONTACT PHUKET
    DELIVERY CONTROL FOR SVFR CLEARANCE 8.COMMUNICATION FAILURE
    PROCEDURE: IF UNABLE CONTACT PHUKET DELIVERY CONTROL, ALL
    AIRCRAFT SHALL CONTACT PHUKET GROUND CONTROL ON FREQUENCY
    121.9 MHZ TO REQUEST ATC CLEARANCE END PART 2 OF 2. 30 MAY
    04:00 2017 UNTIL 30 AUG 11:30 2017. CREATED: 30 MAY 04:16
    2017

VTSP A1504/17 VISUAL DOCKING GUIDANCE SYSTEM (VDGS) ACFT STAND
    NR 5, 6, 7 AND 31 U/S. 11 JUL 07:35 2017 UNTIL 11 OCT 07:30
    2017. CREATED: 11 JUL 07:38 2017

VTSP A1519/17 OBST MOBILE CRANE ERECTED AS FLW 1. 080630.22N0981819.84E
    (AT ACFT STAND NR 8) HGT 98FT 2. 080627.95N0981819.25E (AT
    ACFT STAND NR 9) HGT 98FT 3. 080625.69N0981818.67E (AT ACFT
    STAND NR 10) HGT 98FT. DLY 0100-1000, 12 JUL 08:30 2017 UNTIL
    31 OCT 10:00 2017. CREATED: 12 JUL 08:32 2017

VTSP A1597/17 BIRD CONCENTRATION IN THE VICINITY OF AD. 19 JUL
    02:55 2017 UNTIL 27 OCT 02:00 2017. CREATED: 19 JUL 02:57
    2017

VTSP A1656/17 OBST ERECTED DETAIL AS FLW : 1. TREE AT 080649.3N0981808.52E
    DIST 65M BEFORE THR RWY 09, 200M NORTH OF EXTENDED RCL, HGT
    100FT 2. TREE AT 080652.75N0981835.01E DIST 730M BEYOND THR
    RWY 09, 265M NORTH OF RCL, HGT 50FT 3. TREE AT 080638.8N0981843.41E
    DIST 930M BEYOND THR RWY 09, 210M SOUTH OF RCL, HGT 105FT
    4. ELECTRIC POLE AT 080646.01N0981941.19E DIST 270M BEYOND
    THR RWY 27, 160M SOUTH OF RCL, HGT 42FT. 24 JUL 09:20 2017
    UNTIL 24 OCT 08:00 2017. CREATED: 24 JUL 09:28 2017

VTSP A1710/17 CLOSURE OF TAXIWAY C AND D AT PHUKET INTERNATIONAL
    AIRPORT AMD AS FLW: 1. PROCEDURES 1.1 DEPARTURES: ACFT SHALL
    TAXI ENTERING THE RWY 09/27 VIA TWY A, B, E, F OR G 1.2 ARRIVALS:
    RWY 27 IN USED: ACFT SHALL BE VACATING RWY VIA TWY A, B OR
    E RWY 09 IN USED: ACFT SHALL BE VACATING RWY VIA TWY F OR
    G EXCEPT ACFT CODE A, B AND HELICOPTER REF AIRAC AIP SUPPLEMENT
    A33/16. 30 JUL 08:05 2017 UNTIL 01 NOV 10:00 2017. CREATED:
    30 JUL 08:07 2017

VTSP A1718/17 LOCAL AERODROME REGULATIONS TO PREVENT RWY PAVEMENT
    DAMAGE WHICH MAY RESULT IN THE CLOSURE OF THE AERODROME IF
    SUCH DAMAGE IS SERVE, ACFT CODE LETTER C OR HIGHER SHALL
    MAKE A 180 DEG TURN AT THE RWY TURN PADS LOCATED ON BOTH
    END OF RWY. 30 JUL 13:20 2017 UNTIL 01 NOV 10:00 2017. CREATED:
    30 JUL 13:23 2017

VTSP A1919/17 ACFT STAND NR 15 AND NR 16 CLSD DUE TO FULL SCALE
    EMERG EXER PEMEX 2017. 25 AUG 15:30 2017 UNTIL 25 AUG 17:30
    2017. CREATED: 19 AUG 15:06 2017

VTSP A1930/17 RWY 09/27 CLSD DUE TO WIP. DLY 1900-2359, 10 OCT
    19:00 2017 UNTIL 21 OCT 23:59 2017. CREATED: 21 AUG 05:28
    2017

VTSP A1964/17 VISUAL DOCKING GUIDANCE SYSTEM (VDGS) ACFT STAND
    NR11 AND NR12 NOT AVBL FOR ACFT TYPE A350-900 ACFT STAND
    NR14 NOT AVBL FOR ALL ACFT TYPE RMK/ACFT HAVE TO FLW MARSHALLING
    SIGNALS STRICTLY. 23 AUG 20:50 2017 UNTIL 24 AUG 05:00 2017.
    CREATED: 23 AUG 20:54 2017

VTSP A1965/17 VISUAL DOCKING GUIDANCE SYSTEM (VDGS) ACFT STAND
    NR11 NR12 AND NR14 NOT AVBL FOR ACFT TYPE A350-900 RMK/ACFT
    HAVE TO FLW MARSHALLING SIGNALS STRICTLY. 24 AUG 05:01 2017
    UNTIL 23 OCT 10:00 2017. CREATED: 23 AUG 20:58 2017

VTSP A2475/09 C) 5 NM RADAR SEPARATION BETWEEN IFR AND VFR AIRCRAFT.
    D) BETWEEN VFR AIRCRAFT ? TRAFFIC ADVISORIES AND AS APPROPRIATE
    SAFETY ALERT, AND ALSO INFORMATION TO ENABLE THEM TO FIT
    INTO THE LANDING SEQUENCE. - SSR RADAR APPROACH CONTROL SERVICE
    TO AIRCRAFT PROCEEDING TO PHUKET OR KRABI IN THIS PROGRAMME
    WILL BE TERMINATED AT A SUFFICIENT DISTANCE TO ALLOW TIME
    TO CHANGE TO THE APPROPRIATE TOWER FREQUENCY. -RADAR TECHNICAL
    DETIALS AND COVERAGE A) SECONDARY SURVEILLANCE RADAR - STATION
    : AT BANG DUK HILL PHUKET POSITION 080801.6167 N 0981946.5493
    E - RANGE : 250 NM WITH FOLLOWING LIMITATIONS: - SCAN RATE
    : 12 RPM B) VERTICAL COVERAGE 1) ALTITUDE 3 000 FEET WITHIN
    56 NM 2) ALTITUDE 4 000 FEET WITHIN 56 NM 3) ALTITUDE 6 000
    FEET WITHIN 99 NM 4) ALTITUDE 8 000 FEET WITHIN 106 NM 5)
    ALTITUDE 11 000 FEET WITHIN 119 NM C) HOURS OF OPERATION
    HOURS OF OPERATION WILL BE 24 HOURS WITH THE EXCEPTION OF
    SCHEDULED PREVENTIVE MAINTENANCE PERIOD: THE THIRD FRIDAY
    OF EACH MONTH FROM 1230-1500 UTC PART 4 OF 4 PARTS. 19 OCT
    01:37 2009 UNTIL PERM. CREATED: 19 OCT 01:41 2009

VTSP G5898/17 GPS RAIM PREDICTION FOR: TSO-C129 FAULT DETECTION
    NO GPS RAIM OUTAGES TSO-C146A FAULT DETECTION ONLY NO GPS
    RAIM OUTAGES TSO-C146A FAULT DETECTION WITH EXCLUSION NO
    GPS RAIM OUTAGES. 24 AUG 00:25 2017 UNTIL 25 AUG 23:59 2017.
    CREATED: 24 AUG 00:26 2017

---------------------------------------------------------------------------